Aviation Digital Data Service (ADDS)

Output produced by METARs form (1409 UTC 10 July 2020)
found at http://www.aviationweather.gov/metar/data/
 
KHSV 101406Z 25006KT 10SM SCT017 28/24 A2997 RMK AO2 T02830239
KHSV 101353Z 30005KT 10SM BKN013 28/23 A2998 RMK AO2 SLP142 T02830233
KHSV 101344Z 31003KT 10SM BKN013 28/24 A2998 RMK AO2 T02780239
KHSV 101120Z 1012/1112 26004KT P6SM SCT050 
     FM101800 29009G15KT P6SM FEW050 FEW250 
     FM110200 33005KT P6SM SKC